Time;durP1;ratioP1;P1;durP2;ratioP2;P2;SDS_P1;SDS_P2;PMS_P1;PMS_P2;Temp;Humidity;BMP_temperature;BMP_pressure;BME280_temperature;BME280_humidity;BME280_pressure;Samples;Min_cycle;Max_cycle;Signal;HPM_P1;HPM_P2
2023/08/07 00:01:16;;;;;;;7.55;1.13;;;;;;;12.42;99.98;101206.59;4990111;28;20105;-85
2023/08/07 00:03:41;;;;;;;4.82;1.27;;;;;;;12.40;100.00;101204.00;4989944;28;20044;-85
2023/08/07 00:06:06;;;;;;;5.55;1.40;;;;;;;12.40;99.89;101211.81;4992205;28;20541;-86
2023/08/07 00:08:33;;;;;;;3.20;1.08;;;;;;;12.41;99.83;101205.72;4991308;28;20030;-85
2023/08/07 00:11:08;;;;;;;7.88;1.33;;;;;;;12.42;99.70;101212.63;4972627;28;20113;-85
2023/08/07 00:13:33;;;;;;;5.07;1.50;;;;;;;12.43;99.52;101242.22;4988476;28;20478;-86
2023/08/07 00:15:59;;;;;;;6.55;1.40;;;;;;;12.45;99.09;101207.34;4991289;28;20113;-85
2023/08/07 00:18:24;;;;;;;6.05;1.50;;;;;;;12.44;99.16;101203.00;4989624;28;20038;-85
2023/08/07 00:20:49;;;;;;;2.63;1.02;;;;;;;12.45;99.48;101201.28;4988146;28;20066;-85
2023/08/07 00:23:15;;;;;;;5.57;1.20;;;;;;;12.45;98.84;101201.28;4990087;28;20091;-85
2023/08/07 00:25:40;;;;;;;4.28;1.00;;;;;;;12.46;98.48;101213.44;4993699;28;20037;-85
2023/08/07 00:28:05;;;;;;;4.47;1.48;;;;;;;12.48;98.60;101216.81;4989800;28;20030;-86
2023/08/07 00:30:31;;;;;;;6.70;1.00;;;;;;;12.45;98.75;101206.50;4992203;28;20022;-85
2023/08/07 00:32:56;;;;;;;5.93;1.23;;;;;;;12.44;98.69;101212.63;4991355;28;20429;-86
2023/08/07 00:35:21;;;;;;;7.90;1.65;;;;;;;12.43;98.68;101211.75;4992445;28;20038;-85
2023/08/07 00:37:46;;;;;;;5.43;1.20;;;;;;;12.43;99.17;101216.13;4991928;28;20038;-85
2023/08/07 00:40:12;;;;;;;3.92;1.08;;;;;;;12.44;98.48;101218.69;4991048;28;20037;-86
2023/08/07 00:42:37;;;;;;;4.90;1.23;;;;;;;12.44;98.57;101220.44;4990566;28;20486;-86
2023/08/07 00:45:03;;;;;;;4.72;1.30;;;;;;;12.41;98.98;101216.16;4991634;28;20041;-86
2023/08/07 00:47:28;;;;;;;5.65;1.30;;;;;;;12.40;98.94;101209.22;4991900;28;20026;-85
2023/08/07 00:49:54;;;;;;;7.35;1.25;;;;;;;12.42;98.65;101212.63;4992047;28;20030;-85
2023/08/07 00:52:19;;;;;;;4.97;0.98;;;;;;;12.40;99.00;101211.81;4992306;28;20031;-86
2023/08/07 00:54:45;;;;;;;3.58;1.10;;;;;;;12.42;98.20;101223.06;4991637;28;20034;-86
2023/08/07 00:57:12;;;;;;;4.50;1.02;;;;;;;12.41;98.37;101225.75;4990396;28;20069;-85
2023/08/07 00:59:38;;;;;;;3.03;0.90;;;;;;;12.41;98.44;101221.38;4990429;28;20022;-85
2023/08/07 01:02:04;;;;;;;4.57;1.23;;;;;;;12.42;98.35;101217.03;4989268;28;20029;-85
2023/08/07 01:04:30;;;;;;;5.10;1.20;;;;;;;12.41;98.21;101220.53;4993693;28;20037;-85
2023/08/07 01:06:56;;;;;;;4.15;1.20;;;;;;;12.43;97.99;101218.72;4994030;28;20045;-85
2023/08/07 01:09:21;;;;;;;5.75;1.50;;;;;;;12.43;98.21;101223.94;4990833;28;20030;-85
2023/08/07 01:11:55;;;;;;;8.07;1.40;;;;;;;12.44;98.58;101215.22;4993413;28;20442;-86
2023/08/07 01:14:40;;;;;;;6.97;1.20;;;;;;;12.45;97.81;101220.38;4995617;28;20033;-86
2023/08/07 01:17:08;;;;;;;6.45;1.40;;;;;;;12.44;97.76;101228.28;4987275;28;20041;-85
2023/08/07 01:19:34;;;;;;;6.25;1.20;;;;;;;12.44;97.51;101225.66;4997905;28;20042;-85
2023/08/07 01:22:06;;;;;;;4.60;1.10;;;;;;;12.44;96.71;101236.94;4990487;28;20026;-86
2023/08/07 01:24:31;;;;;;;4.57;1.27;;;;;;;12.46;96.95;101223.88;4990329;28;20376;-85
2023/08/07 01:27:07;;;;;;;4.25;1.10;;;;;;;12.47;96.57;101230.78;4994366;28;20030;-86
2023/08/07 01:29:42;;;;;;;5.57;1.27;;;;;;;12.45;96.42;101223.00;4989962;28;20026;-85
2023/08/07 01:32:09;;;;;;;6.97;1.42;;;;;;;12.47;96.38;101230.78;4991672;28;20073;-85
2023/08/07 01:34:36;;;;;;;6.95;1.33;;;;;;;12.49;96.28;101228.97;4989104;28;20022;-85
2023/08/07 01:37:03;;;;;;;6.50;1.50;;;;;;;12.49;96.34;101236.81;4995949;28;20438;-85
2023/08/07 01:39:29;;;;;;;7.22;1.40;;;;;;;12.51;95.78;101232.41;4994425;28;20029;-85
2023/08/07 01:41:55;;;;;;;8.98;1.70;;;;;;;12.53;95.90;101238.44;4994768;28;20025;-85
2023/08/07 01:44:20;;;;;;;5.50;1.65;;;;;;;12.54;96.06;101245.38;4990441;28;20477;-85
2023/08/07 01:46:46;;;;;;;5.20;1.23;;;;;;;12.55;95.64;101247.09;4994060;28;20037;-85
2023/08/07 01:49:11;;;;;;;5.97;1.35;;;;;;;12.58;95.64;101244.41;4993919;28;20501;-86
2023/08/07 01:51:36;;;;;;;6.80;1.23;;;;;;;12.58;95.31;101243.53;4996995;28;20032;-85
2023/08/07 01:54:01;;;;;;;6.22;1.40;;;;;;;12.60;95.71;101245.22;4990975;28;20026;-85
2023/08/07 01:56:27;;;;;;;8.82;1.50;;;;;;;12.60;95.27;101242.59;4991256;28;20481;-85
2023/08/07 01:58:52;;;;;;;5.47;1.38;;;;;;;12.63;95.17;101240.81;4995321;28;20166;-85
2023/08/07 02:01:17;;;;;;;7.28;1.58;;;;;;;12.66;94.42;101256.38;4998781;28;20370;-85
2023/08/07 02:03:42;;;;;;;5.65;1.50;;;;;;;12.64;94.71;101266.03;4995422;28;20054;-86
2023/08/07 02:06:08;;;;;;;7.10;1.60;;;;;;;12.66;95.25;101267.69;5001845;28;20097;-86
2023/08/07 02:08:33;;;;;;;6.75;1.70;;;;;;;12.64;94.72;101255.59;4992105;28;20026;-85
2023/08/07 02:11:01;;;;;;;8.15;1.48;;;;;;;12.60;95.16;101271.31;4997333;28;20401;-86
2023/08/07 02:13:26;;;;;;;6.47;1.75;;;;;;;12.55;95.75;101265.34;4980986;28;20030;-85
2023/08/07 02:15:51;;;;;;;6.18;1.40;;;;;;;12.50;95.86;101262.00;4992743;28;20034;-85
2023/08/07 02:18:17;;;;;;;3.42;1.17;;;;;;;12.50;95.64;101264.63;4996853;28;20022;-85
2023/08/07 02:20:42;;;;;;;6.15;1.25;;;;;;;12.48;95.66;101258.56;4990225;28;20125;-85
2023/08/07 02:23:07;;;;;;;8.05;1.38;;;;;;;12.42;95.76;101267.44;4989234;28;20035;-85
2023/08/07 02:25:32;;;;;;;7.68;1.77;;;;;;;12.45;96.45;101274.34;4994444;28;20030;-86
2023/08/07 02:27:58;;;;;;;5.30;1.38;;;;;;;12.42;95.80;101262.22;5000541;28;20021;-85
2023/08/07 02:30:23;;;;;;;4.53;1.23;;;;;;;12.42;95.22;101274.41;4992393;28;20034;-85
2023/08/07 02:32:48;;;;;;;3.70;1.40;;;;;;;12.41;95.70;101272.72;4997520;28;20037;-85
2023/08/07 02:35:13;;;;;;;5.85;1.65;;;;;;;12.41;95.65;101277.94;4989682;28;20030;-85
2023/08/07 02:37:39;;;;;;;5.18;1.58;;;;;;;12.40;95.37;101271.00;4999542;28;20026;-86
2023/08/07 02:40:05;;;;;;;5.40;1.50;;;;;;;12.39;95.67;101264.06;5001134;28;20030;-85
2023/08/07 02:42:30;;;;;;;6.25;1.50;;;;;;;12.40;95.59;101273.59;4995770;28;20034;-86
2023/08/07 02:44:55;;;;;;;6.90;1.45;;;;;;;12.38;95.54;101262.34;4995642;28;20375;-85
2023/08/07 02:47:20;;;;;;;5.50;1.52;;;;;;;12.39;94.90;101272.72;4992514;28;20088;-86
2023/08/07 02:49:46;;;;;;;7.90;2.22;;;;;;;12.40;94.76;101265.78;4998100;28;20034;-85
2023/08/07 02:52:11;;;;;;;6.55;1.50;;;;;;;12.41;94.88;101264.88;4993923;28;20428;-85
2023/08/07 02:54:36;;;;;;;7.43;1.80;;;;;;;12.41;94.73;101265.72;4994324;28;20065;-86
2023/08/07 02:57:01;;;;;;;5.35;1.60;;;;;;;12.43;94.63;101278.75;4996374;28;20389;-86
2023/08/07 02:59:27;;;;;;;4.80;1.40;;;;;;;12.43;94.54;101269.16;4998225;28;20219;-85
2023/08/07 03:01:52;;;;;;;7.32;1.60;;;;;;;12.44;94.76;101268.25;4990433;28;20019;-85
2023/08/07 03:04:17;;;;;;;7.03;1.65;;;;;;;12.47;93.98;101271.69;4994781;28;20505;-86
2023/08/07 03:06:43;;;;;;;6.47;1.70;;;;;;;12.46;93.83;101278.66;4992663;28;20034;-85
2023/08/07 03:09:08;;;;;;;7.05;1.75;;;;;;;12.47;93.94;101272.53;4991395;28;20080;-86
2023/08/07 03:11:33;;;;;;;5.35;1.75;;;;;;;12.45;93.74;101275.19;4992457;28;20092;-85
2023/08/07 03:13:58;;;;;;;5.70;1.80;;;;;;;12.48;93.44;101271.63;4994132;28;20041;-86
2023/08/07 03:16:24;;;;;;;10.63;1.90;;;;;;;12.46;93.57;101270.84;4990216;28;20462;-86
2023/08/07 03:18:49;;;;;;;4.97;1.60;;;;;;;12.45;93.71;101261.31;4999531;28;20022;-85
2023/08/07 03:21:14;;;;;;;6.30;1.60;;;;;;;12.45;93.35;101254.31;5001239;28;20524;-86
2023/08/07 03:23:40;;;;;;;6.10;1.90;;;;;;;12.45;93.67;101253.47;4995539;28;20506;-85
2023/08/07 03:26:10;;;;;;;6.05;1.95;;;;;;;12.46;93.61;101252.56;4999681;28;20018;-85
2023/08/07 03:28:36;;;;;;;5.82;1.58;;;;;;;12.48;92.77;101262.97;4992874;28;20056;-86
2023/08/07 03:31:02;;;;;;;4.82;1.48;;;;;;;12.50;92.42;101263.78;4993840;28;20490;-85
2023/08/07 03:33:28;;;;;;;4.57;1.40;;;;;;;12.54;92.41;101257.59;4990556;28;20209;-85
2023/08/07 03:35:54;;;;;;;8.57;1.77;;;;;;;12.53;92.33;101253.25;4993743;28;20182;-85
2023/08/07 03:38:19;;;;;;;8.95;1.70;;;;;;;12.53;92.49;101248.03;4991961;28;20034;-85
2023/08/07 03:40:44;;;;;;;4.68;1.30;;;;;;;12.54;92.60;101253.22;4999698;28;20104;-85
2023/08/07 03:43:10;;;;;;;5.20;1.33;;;;;;;12.55;92.44;101249.69;4991728;28;20029;-85
2023/08/07 03:45:35;;;;;;;5.63;1.40;;;;;;;12.53;92.62;101254.09;4993589;28;20168;-86
2023/08/07 03:48:00;;;;;;;6.72;1.60;;;;;;;12.54;92.83;101255.81;4990891;28;20038;-85
2023/08/07 03:50:26;;;;;;;5.50;1.75;;;;;;;12.55;92.76;101259.31;4992822;28;20089;-85
2023/08/07 03:52:51;;;;;;;6.30;1.60;;;;;;;12.55;93.21;101249.69;4991346;28;20385;-85
2023/08/07 03:55:16;;;;;;;4.90;1.73;;;;;;;12.54;93.36;101255.81;4979527;28;20106;-85
2023/08/07 03:57:42;;;;;;;4.30;1.30;;;;;;;12.55;93.35;101249.69;5005246;28;20034;-85
2023/08/07 04:00:07;;;;;;;3.85;1.45;;;;;;;12.60;93.41;101247.81;4991769;28;20022;-85
2023/08/07 04:02:33;;;;;;;7.72;1.60;;;;;;;12.58;93.23;101260.06;4995972;28;20509;-85
2023/08/07 04:04:58;;;;;;;3.30;1.40;;;;;;;12.57;92.95;101253.13;5004746;28;20092;-85
2023/08/07 04:07:23;;;;;;;6.30;1.52;;;;;;;12.57;93.51;101252.25;5000068;28;20052;-85
2023/08/07 04:09:49;;;;;;;7.05;1.65;;;;;;;12.58;92.37;101270.50;5009738;28;20033;-86
2023/08/07 04:12:14;;;;;;;5.32;1.92;;;;;;;12.56;91.88;101259.25;4997879;28;20022;-86
2023/08/07 04:14:39;;;;;;;6.75;1.60;;;;;;;12.57;91.60;101254.88;4998011;28;20029;-86
2023/08/07 04:17:04;;;;;;;9.35;2.13;;;;;;;12.56;91.81;101256.63;4992054;28;20038;-86
2023/08/07 04:19:30;;;;;;;6.38;1.60;;;;;;;12.59;91.55;101258.28;5006966;28;20103;-85
2023/08/07 04:21:55;;;;;;;5.32;1.70;;;;;;;12.58;92.12;101254.84;4997706;28;20053;-85
2023/08/07 04:24:20;;;;;;;8.43;1.60;;;;;;;12.56;92.23;101264.47;4990379;28;20351;-85
2023/08/07 04:26:46;;;;;;;6.82;1.55;;;;;;;12.59;91.76;101255.69;4990127;28;20038;-86
2023/08/07 04:29:11;;;;;;;6.57;1.90;;;;;;;12.59;92.46;101259.16;4993863;28;20022;-85
2023/08/07 04:31:36;;;;;;;5.05;1.65;;;;;;;12.60;92.21;101275.66;4988266;28;20030;-86
2023/08/07 04:34:02;;;;;;;5.75;1.63;;;;;;;12.60;91.87;101258.28;4992858;28;20027;-85
2023/08/07 04:36:27;;;;;;;6.68;2.13;;;;;;;12.62;91.52;101270.44;4991003;28;20029;-85
2023/08/07 04:38:52;;;;;;;7.55;1.70;;;;;;;12.62;92.10;101273.03;4993138;28;20182;-85
2023/08/07 04:41:17;;;;;;;5.38;1.45;;;;;;;12.63;92.01;101269.53;4985655;28;20034;-85
2023/08/07 04:43:43;;;;;;;5.90;1.70;;;;;;;12.63;91.69;101277.34;4989181;28;20351;-85
2023/08/07 04:46:09;;;;;;;3.75;1.35;;;;;;;12.64;91.45;101273.84;4995891;28;20030;-86
2023/08/07 04:48:35;;;;;;;4.50;1.50;;;;;;;12.66;92.13;101277.25;4990166;28;20032;-85
2023/08/07 04:51:00;;;;;;;5.82;1.77;;;;;;;12.67;92.23;101273.75;4984808;28;20026;-85
2023/08/07 04:53:25;;;;;;;5.82;1.42;;;;;;;12.65;92.18;101275.53;4991567;28;20042;-86
2023/08/07 04:55:51;;;;;;;7.60;1.40;;;;;;;12.67;91.95;101286.78;4986175;28;20030;-86
2023/08/07 04:58:16;;;;;;;5.70;1.38;;;;;;;12.68;91.92;101285.91;4988917;28;20077;-86
2023/08/07 05:00:41;;;;;;;4.82;1.60;;;;;;;12.66;92.58;101288.56;4987619;28;20110;-85
2023/08/07 05:03:06;;;;;;;8.00;1.60;;;;;;;12.67;92.67;101282.44;4986712;28;20477;-86
2023/08/07 05:05:32;;;;;;;5.32;1.65;;;;;;;12.69;92.70;101285.00;4990858;28;20026;-85
2023/08/07 05:07:58;;;;;;;5.35;1.40;;;;;;;12.68;92.53;101284.16;4989633;28;20080;-86
2023/08/07 05:10:23;;;;;;;4.38;1.35;;;;;;;12.69;93.05;101282.38;4991214;28;20044;-86
2023/08/07 05:12:54;;;;;;;6.63;1.50;;;;;;;12.71;92.84;101288.44;4989999;28;20443;-85
2023/08/07 05:15:20;;;;;;;5.95;1.40;;;;;;;12.70;92.65;101289.31;4977616;28;20029;-86
2023/08/07 05:17:45;;;;;;;3.38;1.30;;;;;;;12.72;92.74;101290.13;4989577;28;20482;-86
2023/08/07 05:20:10;;;;;;;4.05;1.42;;;;;;;12.71;92.82;101293.66;5003049;28;20039;-86
2023/08/07 05:22:37;;;;;;;4.22;1.20;;;;;;;12.71;92.73;101293.66;4999633;28;20101;-86
2023/08/07 05:25:03;;;;;;;4.78;1.35;;;;;;;12.72;92.73;101297.97;4997293;28;20037;-85
2023/08/07 05:27:28;;;;;;;5.00;1.42;;;;;;;12.74;92.20;101296.19;5001295;28;20045;-86
2023/08/07 05:29:53;;;;;;;3.72;1.20;;;;;;;12.75;92.51;101300.50;4991840;28;20033;-86
2023/08/07 05:32:18;;;;;;;8.48;1.40;;;;;;;12.76;92.99;101304.84;4989697;28;20034;-86
2023/08/07 05:34:44;;;;;;;5.70;1.50;;;;;;;12.75;93.17;101318.78;4992809;28;20034;-86
2023/08/07 05:37:09;;;;;;;4.40;1.38;;;;;;;12.73;93.01;101325.78;4990327;28;20034;-86
2023/08/07 05:39:35;;;;;;;4.72;1.60;;;;;;;12.73;92.83;101323.19;4988431;28;20023;-86
2023/08/07 05:42:01;;;;;;;7.47;1.70;;;;;;;12.72;92.75;101324.09;4987524;28;20062;-86
2023/08/07 05:44:27;;;;;;;3.95;1.40;;;;;;;12.71;93.28;101332.81;4992297;28;20053;-86
2023/08/07 05:46:52;;;;;;;4.70;1.50;;;;;;;12.71;93.27;101330.19;4989781;28;20025;-86
2023/08/07 05:49:17;;;;;;;5.10;1.33;;;;;;;12.72;93.38;101326.69;4990696;28;20065;-86
2023/08/07 05:51:42;;;;;;;3.67;1.33;;;;;;;12.73;93.35;101331.84;4994853;28;20034;-86
2023/08/07 05:54:08;;;;;;;7.85;1.55;;;;;;;12.73;93.65;101331.84;4993923;28;20101;-86
2023/08/07 05:56:33;;;;;;;6.28;1.40;;;;;;;12.74;93.58;101333.56;4994263;28;20502;-86
2023/08/07 05:58:59;;;;;;;3.33;1.02;;;;;;;12.74;93.26;101333.56;4995735;28;20030;-86
2023/08/07 06:01:30;;;;;;;5.88;1.50;;;;;;;12.75;93.59;101340.50;4994362;28;20022;-86
2023/08/07 06:03:55;;;;;;;6.18;1.35;;;;;;;12.75;93.29;101329.22;4993637;28;20170;-86
2023/08/07 06:06:21;;;;;;;4.10;1.30;;;;;;;12.74;94.00;101333.56;4995081;28;20178;-86
2023/08/07 06:08:46;;;;;;;5.80;1.33;;;;;;;12.75;93.93;101334.44;4993025;28;20429;-86
2023/08/07 06:11:11;;;;;;;7.07;1.33;;;;;;;12.75;94.04;101340.50;4991051;28;20022;-85
2023/08/07 06:13:37;;;;;;;6.85;1.40;;;;;;;12.78;93.87;101339.59;4991948;28;20378;-86
2023/08/07 06:16:02;;;;;;;4.75;1.55;;;;;;;12.79;94.26;101346.53;4992310;28;20022;-86
2023/08/07 06:18:27;;;;;;;4.45;1.42;;;;;;;12.81;94.60;101344.69;4992257;28;20713;-86
2023/08/07 06:20:52;;;;;;;4.80;1.30;;;;;;;12.82;94.15;101351.66;4985188;28;20070;-86
2023/08/07 06:23:18;;;;;;;4.82;1.30;;;;;;;12.84;94.04;101349.84;4977304;28;20550;-86
2023/08/07 06:25:43;;;;;;;4.60;1.25;;;;;;;12.84;94.54;101360.28;4981040;28;20030;-86
2023/08/07 06:28:08;;;;;;;5.00;1.50;;;;;;;12.88;93.80;101359.31;4984547;28;20034;-86
2023/08/07 06:30:34;;;;;;;5.68;1.90;;;;;;;12.89;93.82;101350.59;4974968;28;20429;-85
2023/08/07 06:32:59;;;;;;;3.25;1.23;;;;;;;12.92;94.30;101351.41;4980660;28;20041;-85
2023/08/07 06:35:24;;;;;;;7.93;1.67;;;;;;;12.92;94.39;101354.88;4979057;28;20500;-85
2023/08/07 06:37:50;;;;;;;4.80;1.55;;;;;;;12.96;93.98;101358.28;4972102;28;20094;-85
2023/08/07 06:40:15;;;;;;;7.20;1.75;;;;;;;12.99;94.16;101363.38;4960213;28;21745;-85
2023/08/07 06:42:40;;;;;;;6.53;1.20;;;;;;;13.00;93.54;101365.97;4974025;28;20463;-85
2023/08/07 06:45:06;;;;;;;4.90;1.23;;;;;;;13.03;92.80;101365.03;4967204;28;20034;-85
2023/08/07 06:47:32;;;;;;;5.65;1.33;;;;;;;13.06;92.85;101378.00;4978665;28;20027;-85
2023/08/07 06:49:57;;;;;;;6.75;1.30;;;;;;;13.10;91.99;101369.19;4976853;28;20033;-85
2023/08/07 06:52:22;;;;;;;6.55;1.20;;;;;;;13.10;92.23;101377.03;4977428;28;20403;-85
2023/08/07 06:54:48;;;;;;;5.28;1.20;;;;;;;13.13;91.80;101374.34;4978004;28;20107;-85
2023/08/07 06:57:13;;;;;;;5.05;1.42;;;;;;;13.16;91.35;101378.59;4961504;28;20033;-85
2023/08/07 06:59:39;;;;;;;5.25;1.30;;;;;;;13.17;90.97;101388.16;4976050;28;20690;-86
2023/08/07 07:02:04;;;;;;;6.25;1.30;;;;;;;13.16;91.38;101384.66;4985658;28;20481;-82
2023/08/07 07:04:29;;;;;;;3.80;1.40;;;;;;;13.20;90.93;101394.16;4975002;28;20039;-86
2023/08/07 07:06:55;;;;;;;5.10;1.27;;;;;;;13.24;90.87;101381.84;4975979;28;20102;-85
2023/08/07 07:09:20;;;;;;;5.95;1.20;;;;;;;13.26;90.61;101403.56;4968862;28;20038;-85
2023/08/07 07:11:46;;;;;;;7.63;1.40;;;;;;;13.28;90.53;101411.38;4975693;28;20041;-85
2023/08/07 07:14:11;;;;;;;5.90;1.27;;;;;;;13.30;90.26;101415.66;4973556;28;20062;-85
2023/08/07 07:16:37;;;;;;;5.45;1.20;;;;;;;13.34;90.49;101425.13;4977140;28;20591;-85
2023/08/07 07:19:03;;;;;;;4.90;1.30;;;;;;;13.38;89.61;101415.44;4970831;28;20397;-85
2023/08/07 07:21:28;;;;;;;6.95;1.40;;;;;;;13.45;89.35;101423.97;4994730;28;20026;-85
2023/08/07 07:23:56;;;;;;;6.20;1.33;;;;;;;13.48;89.91;101418.69;4991392;28;20038;-86
2023/08/07 07:26:21;;;;;;;7.63;1.58;;;;;;;13.55;89.64;101427.19;4982062;28;20069;-85
2023/08/07 07:28:47;;;;;;;7.40;1.25;;;;;;;13.60;88.98;101433.16;4983498;28;20061;-85
2023/08/07 07:31:12;;;;;;;6.07;1.50;;;;;;;13.60;88.94;101431.38;4993393;28;20520;-85
2023/08/07 07:33:39;;;;;;;5.78;1.30;;;;;;;13.61;88.74;101459.25;4993348;28;20038;-86
2023/08/07 07:36:05;;;;;;;4.90;1.30;;;;;;;13.62;89.12;101447.03;4993689;28;20057;-85
2023/08/07 07:38:30;;;;;;;5.90;1.33;;;;;;;13.59;89.62;101449.75;4992093;28;20125;-86
2023/08/07 07:40:56;;;;;;;4.95;1.25;;;;;;;13.60;89.48;101449.69;4993504;28;20113;-85
2023/08/07 07:43:22;;;;;;;5.38;1.20;;;;;;;13.63;89.71;101446.16;4992253;28;20026;-85
2023/08/07 07:45:48;;;;;;;2.90;1.10;;;;;;;13.70;91.46;101459.91;4992451;28;20265;-86
2023/08/07 07:48:13;;;;;;;5.38;1.27;;;;;;;13.77;89.91;101461.41;4992621;28;20503;-86
2023/08/07 07:50:38;;;;;;;3.97;1.25;;;;;;;13.81;90.15;101483.97;4993654;28;20030;-87
2023/08/07 07:53:03;;;;;;;5.18;1.30;;;;;;;13.81;89.09;101497.03;4990351;28;20031;-86
2023/08/07 07:55:29;;;;;;;5.47;1.52;;;;;;;13.71;92.01;101475.53;4990762;28;20398;-86
2023/08/07 07:57:54;;;;;;;4.40;1.30;;;;;;;13.68;92.47;101483.44;4991924;28;20039;-86
2023/08/07 08:00:20;;;;;;;3.67;1.08;;;;;;;13.62;93.03;101475.81;4993135;28;20521;-88
2023/08/07 08:02:45;;;;;;;2.47;0.90;;;;;;;13.56;93.12;101494.25;4991256;28;20509;-88
2023/08/07 08:05:12;;;;;;;4.20;1.40;;;;;;;13.48;94.23;101481.41;4991170;28;20030;-88
2023/08/07 08:07:39;;;;;;;3.08;1.13;;;;;;;13.47;94.68;101488.41;4973975;28;20034;-87
2023/08/07 08:10:06;;;;;;;4.90;1.40;;;;;;;13.47;95.03;101480.56;4992452;28;20026;-88
2023/08/07 08:12:31;;;;;;;5.78;1.25;;;;;;;13.51;93.25;101487.41;4987096;28;20034;-89
2023/08/07 08:14:57;;;;;;;5.07;1.60;;;;;;;13.53;94.79;101479.53;4991742;28;20049;-89
2023/08/07 08:17:23;;;;;;;6.53;1.33;;;;;;;13.55;93.73;101485.59;4986472;28;20069;-89
2023/08/07 08:19:48;;;;;;;4.55;1.50;;;;;;;13.50;94.20;101483.06;4986086;28;20401;-88
2023/08/07 08:22:13;;;;;;;6.97;1.40;;;;;;;13.49;94.43;101478.75;4967288;28;20065;-86
2023/08/07 08:24:39;;;;;;;6.13;1.48;;;;;;;13.50;94.28;101487.47;4969447;28;20030;-87
2023/08/07 08:27:04;;;;;;;3.78;1.40;;;;;;;13.54;93.50;101486.47;4974792;28;20348;-89
2023/08/07 08:29:30;;;;;;;5.20;1.60;;;;;;;13.59;94.89;101492.41;4974633;28;20034;-86
2023/08/07 08:31:55;;;;;;;6.35;1.48;;;;;;;13.62;93.19;101492.34;4974089;28;20081;-87
2023/08/07 08:34:21;;;;;;;4.18;1.40;;;;;;;13.68;93.44;101491.28;4978585;28;20034;-89
2023/08/07 08:36:47;;;;;;;5.85;1.58;;;;;;;13.75;93.00;101494.63;4961310;28;20037;-87
2023/08/07 08:39:12;;;;;;;3.42;1.33;;;;;;;13.79;93.36;101491.88;4976945;28;20068;-87
2023/08/07 08:41:38;;;;;;;3.75;1.10;;;;;;;13.89;92.06;101496.81;4975219;28;20043;-85
2023/08/07 08:44:06;;;;;;;6.10;1.40;;;;;;;13.94;91.59;101500.16;4975721;28;20061;-87
2023/08/07 08:46:32;;;;;;;6.63;1.55;;;;;;;14.03;91.21;101492.03;4979784;28;20488;-87
2023/08/07 08:48:58;;;;;;;4.45;1.30;;;;;;;14.16;92.36;101495.16;4972372;28;20033;-87
2023/08/07 08:51:24;;;;;;;7.60;1.80;;;;;;;14.34;90.68;101503.34;4972738;28;20051;-88
2023/08/07 08:53:56;;;;;;;5.85;1.52;;;;;;;14.45;89.00;101501.22;4986912;28;20038;-88
2023/08/07 08:56:22;;;;;;;3.20;1.40;;;;;;;14.53;89.32;101503.59;4964713;28;20085;-87
2023/08/07 08:58:50;;;;;;;5.88;1.58;;;;;;;14.60;88.96;101504.28;4983496;28;20639;-88
2023/08/07 09:01:17;;;;;;;5.68;1.40;;;;;;;14.62;86.57;101508.56;4970376;28;20023;-89
2023/08/07 09:03:47;;;;;;;3.25;1.35;;;;;;;14.65;85.20;101513.72;4976800;28;20035;-89
2023/08/07 09:06:13;;;;;;;6.85;1.50;;;;;;;14.60;83.18;101514.78;4973399;28;20030;-87
2023/08/07 09:08:42;;;;;;;5.85;1.58;;;;;;;14.58;81.92;101514.78;4973344;28;20030;-88
2023/08/07 09:11:08;;;;;;;4.13;1.45;;;;;;;14.58;81.75;101512.19;4974500;28;20041;-89
2023/08/07 09:13:36;;;;;;;6.25;1.45;;;;;;;14.64;82.19;101517.22;4985419;28;20117;-87
2023/08/07 09:16:01;;;;;;;4.25;1.25;;;;;;;14.70;81.18;101513.59;4971603;28;20101;-86
2023/08/07 09:18:27;;;;;;;6.63;1.40;;;;;;;14.75;78.65;101523.91;4981535;28;20474;-88
2023/08/07 09:20:53;;;;;;;5.18;1.40;;;;;;;14.84;80.53;101523.63;4984572;28;20404;-87
2023/08/07 09:23:19;;;;;;;7.97;1.50;;;;;;;14.88;77.34;101525.22;4986469;28;20023;-85
2023/08/07 09:25:44;;;;;;;5.80;1.40;;;;;;;14.94;75.85;101514.53;4990982;28;20030;-85
2023/08/07 09:28:09;;;;;;;7.13;1.65;;;;;;;15.03;76.17;101523.84;4991420;28;20413;-84
2023/08/07 09:30:37;;;;;;;6.80;1.70;;;;;;;15.12;76.18;101533.19;4985598;28;20031;-84
2023/08/07 09:33:03;;;;;;;5.18;1.40;;;;;;;15.16;71.16;101545.28;4990166;28;20034;-84
2023/08/07 09:35:31;;;;;;;6.60;1.40;;;;;;;15.21;70.31;101538.09;4991312;28;20022;-85
2023/08/07 09:37:57;;;;;;;5.32;1.38;;;;;;;15.26;73.52;101530.94;4991380;28;20359;-89
2023/08/07 09:40:22;;;;;;;5.47;1.50;;;;;;;15.32;69.96;101538.59;4990585;28;20029;-87
2023/08/07 09:42:52;;;;;;;5.25;1.20;;;;;;;15.40;70.11;101533.09;4992434;28;20034;-87
2023/08/07 09:45:27;;;;;;;7.45;1.40;;;;;;;15.46;68.22;101542.50;4990646;28;20026;-89
2023/08/07 09:48:06;;;;;;;6.90;1.40;;;;;;;15.47;69.12;101549.47;4986805;28;20030;-86
2023/08/07 09:50:32;;;;;;;4.18;1.23;;;;;;;15.41;68.54;101540.03;4991032;28;20018;-86
2023/08/07 09:52:57;;;;;;;5.45;1.23;;;;;;;15.42;71.34;101554.00;4994835;28;20030;-86
2023/08/07 09:55:23;;;;;;;4.65;1.30;;;;;;;15.42;68.85;101551.38;4992526;28;20053;-84
2023/08/07 09:57:50;;;;;;;5.38;1.15;;;;;;;15.46;68.62;101537.25;4994882;28;20108;-85
2023/08/07 10:00:19;;;;;;;5.50;1.23;;;;;;;15.52;68.10;101539.69;4994443;28;20022;-85
2023/08/07 10:02:46;;;;;;;5.78;1.25;;;;;;;15.55;65.46;101551.81;4993192;28;20023;-87
2023/08/07 10:05:12;;;;;;;3.25;1.23;;;;;;;15.58;67.79;101544.69;4987323;28;20034;-87
2023/08/07 10:07:38;;;;;;;8.10;1.30;;;;;;;15.62;66.41;101542.81;4982558;28;20034;-85
2023/08/07 10:10:04;;;;;;;5.20;1.13;;;;;;;15.67;65.51;101550.53;4982387;28;20433;-86
2023/08/07 10:12:31;;;;;;;3.47;1.10;;;;;;;15.72;65.72;101545.94;4985781;28;20065;-89
2023/08/07 10:14:58;;;;;;;4.53;1.10;;;;;;;15.76;64.26;101547.56;4984225;28;20034;-87
2023/08/07 10:17:24;;;;;;;3.53;1.10;;;;;;;15.76;65.63;101552.81;4984615;28;20483;-86
2023/08/07 10:19:53;;;;;;;2.45;0.95;;;;;;;15.81;63.22;101553.50;4986571;28;20050;-85
2023/08/07 10:22:26;;;;;;;3.38;1.00;;;;;;;15.89;63.99;101554.09;4984174;28;20572;-86
2023/08/07 10:24:53;;;;;;;3.72;1.17;;;;;;;15.96;59.81;101560.00;4985866;28;20030;-85
2023/08/07 10:27:20;;;;;;;3.88;0.90;;;;;;;15.98;61.89;101552.06;4984796;28;20034;-87
2023/08/07 10:29:50;;;;;;;4.07;1.17;;;;;;;15.96;60.35;101567.00;4982973;28;20030;-88
2023/08/07 10:32:20;;;;;;;3.10;0.90;;;;;;;15.95;61.51;101560.03;4983876;28;20027;-83
2023/08/07 10:34:52;;;;;;;5.35;1.10;;;;;;;15.98;62.47;101566.03;4981200;28;20029;-86
2023/08/07 10:37:32;;;;;;;3.25;0.98;;;;;;;16.01;63.48;101560.66;4984748;28;20022;-87
2023/08/07 10:40:04;;;;;;;5.47;1.10;;;;;;;16.04;62.25;101565.81;4989476;28;20059;-85
2023/08/07 10:42:54;;;;;;;4.10;1.20;;;;;;;16.09;64.01;101573.50;4986734;28;20042;-85
2023/08/07 10:45:22;;;;;;;4.70;1.33;;;;;;;16.11;58.37;101576.94;4985931;28;20061;-86
2023/08/07 10:48:13;;;;;;;5.05;1.08;;;;;;;16.13;61.84;101563.75;4985687;28;20031;-84
2023/08/07 10:50:53;;;;;;;3.03;1.10;;;;;;;16.22;61.08;101574.78;4984581;28;20109;-85
2023/08/07 10:53:36;;;;;;;3.25;1.10;;;;;;;16.31;62.44;101568.28;4984149;28;20053;-82
2023/08/07 10:56:03;;;;;;;1.92;1.00;;;;;;;16.40;58.21;101569.72;4988751;28;20087;-83
2023/08/07 10:58:34;;;;;;;5.03;1.00;;;;;;;16.45;60.30;101582.69;4983796;28;20474;-83
2023/08/07 11:01:27;;;;;;;3.92;1.10;;;;;;;16.50;61.40;101567.56;4985983;28;20022;-84
2023/08/07 11:04:00;;;;;;;3.95;1.00;;;;;;;16.50;59.02;101585.97;4985221;28;20033;-83
2023/08/07 11:06:28;;;;;;;4.18;1.30;;;;;;;16.44;57.42;101592.31;4989308;28;20060;-87
2023/08/07 11:08:54;;;;;;;3.88;1.00;;;;;;;16.37;58.44;101578.56;4986704;28;20497;-84
2023/08/07 11:11:20;;;;;;;3.03;1.05;;;;;;;16.35;58.57;101584.81;4986017;28;20045;-88
2023/08/07 11:13:45;;;;;;;3.60;1.10;;;;;;;16.37;57.24;101572.47;4985900;28;20034;-87
2023/08/07 11:16:11;;;;;;;2.35;1.00;;;;;;;16.41;58.52;101579.28;4968633;28;20042;-89
2023/08/07 11:18:40;;;;;;;2.92;1.02;;;;;;;16.43;58.75;101572.22;4968017;28;20101;-88
2023/08/07 11:21:06;;;;;;;4.45;1.17;;;;;;;16.48;60.64;101575.53;4988960;28;20043;-87